sensor_id;sensor_type;location;lat;lon;timestamp;P1;durP1;ratioP1;P2;durP2;ratioP2
44426;SDS011;30133;47.866;-4.222;2024-03-22T00:01:32;10.73;;;6.47;;
44426;SDS011;30133;47.866;-4.222;2024-03-22T00:04:18;7.60;;;5.90;;
44426;SDS011;30133;47.866;-4.222;2024-03-22T00:07:04;8.75;;;5.95;;
44426;SDS011;30133;47.866;-4.222;2024-03-22T00:09:50;8.60;;;5.93;;
44426;SDS011;30133;47.866;-4.222;2024-03-22T00:12:36;8.95;;;5.82;;
44426;SDS011;30133;47.866;-4.222;2024-03-22T00:15:22;7.93;;;6.07;;
44426;SDS011;30133;47.866;-4.222;2024-03-22T00:18:09;8.98;;;6.30;;
44426;SDS011;30133;47.866;-4.222;2024-03-22T00:20:55;8.20;;;5.85;;
44426;SDS011;30133;47.866;-4.222;2024-03-22T00:23:41;8.25;;;5.88;;
44426;SDS011;30133;47.866;-4.222;2024-03-22T00:26:28;9.45;;;6.35;;
44426;SDS011;30133;47.866;-4.222;2024-03-22T00:29:14;8.00;;;5.97;;
44426;SDS011;30133;47.866;-4.222;2024-03-22T00:32:01;12.32;;;6.45;;
44426;SDS011;30133;47.866;-4.222;2024-03-22T00:34:53;8.95;;;6.20;;
44426;SDS011;30133;47.866;-4.222;2024-03-22T00:37:39;10.65;;;6.25;;
44426;SDS011;30133;47.866;-4.222;2024-03-22T00:40:25;8.57;;;6.55;;
44426;SDS011;30133;47.866;-4.222;2024-03-22T00:43:11;8.48;;;6.05;;
44426;SDS011;30133;47.866;-4.222;2024-03-22T00:45:57;8.32;;;6.63;;
44426;SDS011;30133;47.866;-4.222;2024-03-22T00:48:44;9.65;;;6.13;;
44426;SDS011;30133;47.866;-4.222;2024-03-22T00:51:30;8.00;;;5.88;;
44426;SDS011;30133;47.866;-4.222;2024-03-22T00:54:16;8.27;;;6.28;;
44426;SDS011;30133;47.866;-4.222;2024-03-22T00:57:02;9.70;;;6.65;;
44426;SDS011;30133;47.866;-4.222;2024-03-22T00:59:48;8.73;;;5.60;;
44426;SDS011;30133;47.866;-4.222;2024-03-22T01:02:34;8.93;;;6.30;;
44426;SDS011;30133;47.866;-4.222;2024-03-22T01:05:20;11.63;;;6.53;;
44426;SDS011;30133;47.866;-4.222;2024-03-22T01:08:06;10.45;;;6.13;;
44426;SDS011;30133;47.866;-4.222;2024-03-22T01:10:52;9.40;;;6.10;;
44426;SDS011;30133;47.866;-4.222;2024-03-22T01:13:38;8.48;;;6.15;;
44426;SDS011;30133;47.866;-4.222;2024-03-22T01:16:24;7.57;;;5.72;;
44426;SDS011;30133;47.866;-4.222;2024-03-22T01:19:11;8.10;;;5.93;;
44426;SDS011;30133;47.866;-4.222;2024-03-22T01:21:57;9.15;;;6.45;;
44426;SDS011;30133;47.866;-4.222;2024-03-22T01:24:44;9.07;;;6.85;;
44426;SDS011;30133;47.866;-4.222;2024-03-22T01:27:30;8.50;;;6.55;;
44426;SDS011;30133;47.866;-4.222;2024-03-22T01:30:16;9.38;;;6.18;;
44426;SDS011;30133;47.866;-4.222;2024-03-22T01:33:02;8.63;;;6.30;;
44426;SDS011;30133;47.866;-4.222;2024-03-22T01:35:55;8.20;;;5.93;;
44426;SDS011;30133;47.866;-4.222;2024-03-22T01:38:41;8.10;;;6.20;;
44426;SDS011;30133;47.866;-4.222;2024-03-22T01:41:27;8.90;;;5.95;;
44426;SDS011;30133;47.866;-4.222;2024-03-22T01:44:13;8.98;;;6.22;;
44426;SDS011;30133;47.866;-4.222;2024-03-22T01:46:59;10.98;;;6.40;;
44426;SDS011;30133;47.866;-4.222;2024-03-22T01:49:46;9.23;;;6.50;;
44426;SDS011;30133;47.866;-4.222;2024-03-22T01:52:36;10.60;;;6.15;;
44426;SDS011;30133;47.866;-4.222;2024-03-22T01:55:22;12.15;;;6.35;;
44426;SDS011;30133;47.866;-4.222;2024-03-22T01:58:09;9.30;;;6.50;;
44426;SDS011;30133;47.866;-4.222;2024-03-22T02:00:57;8.20;;;5.95;;
44426;SDS011;30133;47.866;-4.222;2024-03-22T02:03:44;9.20;;;5.75;;
44426;SDS011;30133;47.866;-4.222;2024-03-22T02:06:30;7.03;;;5.78;;
44426;SDS011;30133;47.866;-4.222;2024-03-22T02:09:16;10.65;;;6.35;;
44426;SDS011;30133;47.866;-4.222;2024-03-22T02:12:03;8.05;;;6.15;;
44426;SDS011;30133;47.866;-4.222;2024-03-22T02:14:50;8.23;;;5.93;;
44426;SDS011;30133;47.866;-4.222;2024-03-22T02:17:36;7.43;;;5.68;;
44426;SDS011;30133;47.866;-4.222;2024-03-22T02:20:22;7.65;;;5.38;;
44426;SDS011;30133;47.866;-4.222;2024-03-22T02:23:08;7.85;;;5.60;;
44426;SDS011;30133;47.866;-4.222;2024-03-22T02:25:54;7.30;;;5.78;;
44426;SDS011;30133;47.866;-4.222;2024-03-22T02:28:40;8.80;;;5.70;;
44426;SDS011;30133;47.866;-4.222;2024-03-22T02:31:26;8.35;;;5.32;;
44426;SDS011;30133;47.866;-4.222;2024-03-22T02:34:12;7.95;;;6.10;;
44426;SDS011;30133;47.866;-4.222;2024-03-22T02:39:51;9.45;;;6.07;;
44426;SDS011;30133;47.866;-4.222;2024-03-22T02:42:37;8.13;;;5.18;;
44426;SDS011;30133;47.866;-4.222;2024-03-22T02:45:23;10.55;;;6.40;;
44426;SDS011;30133;47.866;-4.222;2024-03-22T02:48:09;8.20;;;5.75;;
44426;SDS011;30133;47.866;-4.222;2024-03-22T02:50:55;7.82;;;5.50;;
44426;SDS011;30133;47.866;-4.222;2024-03-22T02:53:42;7.53;;;5.30;;
44426;SDS011;30133;47.866;-4.222;2024-03-22T02:56:28;7.28;;;5.22;;
44426;SDS011;30133;47.866;-4.222;2024-03-22T02:59:14;8.00;;;5.53;;
44426;SDS011;30133;47.866;-4.222;2024-03-22T03:02:00;9.02;;;5.25;;
44426;SDS011;30133;47.866;-4.222;2024-03-22T03:04:46;7.28;;;5.07;;
44426;SDS011;30133;47.866;-4.222;2024-03-22T03:07:32;6.03;;;4.03;;
44426;SDS011;30133;47.866;-4.222;2024-03-22T03:10:18;6.22;;;5.03;;
44426;SDS011;30133;47.866;-4.222;2024-03-22T03:13:04;9.05;;;5.03;;
44426;SDS011;30133;47.866;-4.222;2024-03-22T03:15:50;6.43;;;4.60;;
44426;SDS011;30133;47.866;-4.222;2024-03-22T03:18:36;6.45;;;4.70;;
44426;SDS011;30133;47.866;-4.222;2024-03-22T03:21:23;6.75;;;4.65;;
44426;SDS011;30133;47.866;-4.222;2024-03-22T03:24:09;6.97;;;4.70;;
44426;SDS011;30133;47.866;-4.222;2024-03-22T03:26:55;5.00;;;4.43;;
44426;SDS011;30133;47.866;-4.222;2024-03-22T03:29:41;6.63;;;5.05;;
44426;SDS011;30133;47.866;-4.222;2024-03-22T03:32:27;5.30;;;4.50;;
44426;SDS011;30133;47.866;-4.222;2024-03-22T03:35:13;8.30;;;4.75;;
44426;SDS011;30133;47.866;-4.222;2024-03-22T03:38:06;5.88;;;4.38;;
44426;SDS011;30133;47.866;-4.222;2024-03-22T03:40:52;6.15;;;4.68;;
44426;SDS011;30133;47.866;-4.222;2024-03-22T03:43:38;7.10;;;4.97;;
44426;SDS011;30133;47.866;-4.222;2024-03-22T03:46:24;5.90;;;4.70;;
44426;SDS011;30133;47.866;-4.222;2024-03-22T03:49:10;4.32;;;3.80;;
44426;SDS011;30133;47.866;-4.222;2024-03-22T03:51:56;7.05;;;4.25;;
44426;SDS011;30133;47.866;-4.222;2024-03-22T03:54:42;6.50;;;4.38;;
44426;SDS011;30133;47.866;-4.222;2024-03-22T03:57:28;5.45;;;3.88;;
44426;SDS011;30133;47.866;-4.222;2024-03-22T04:00:15;5.32;;;4.40;;
44426;SDS011;30133;47.866;-4.222;2024-03-22T04:03:01;5.88;;;3.78;;
44426;SDS011;30133;47.866;-4.222;2024-03-22T04:05:55;5.28;;;4.07;;
44426;SDS011;30133;47.866;-4.222;2024-03-22T04:08:42;6.40;;;4.25;;
44426;SDS011;30133;47.866;-4.222;2024-03-22T04:11:29;6.40;;;4.15;;
44426;SDS011;30133;47.866;-4.222;2024-03-22T04:14:15;5.25;;;3.55;;
44426;SDS011;30133;47.866;-4.222;2024-03-22T04:17:01;7.60;;;4.40;;
44426;SDS011;30133;47.866;-4.222;2024-03-22T04:19:49;7.95;;;4.10;;
44426;SDS011;30133;47.866;-4.222;2024-03-22T04:22:35;3.72;;;3.33;;
44426;SDS011;30133;47.866;-4.222;2024-03-22T04:25:21;4.90;;;3.65;;
44426;SDS011;30133;47.866;-4.222;2024-03-22T04:28:07;6.05;;;3.88;;
44426;SDS011;30133;47.866;-4.222;2024-03-22T04:30:57;4.68;;;3.50;;
44426;SDS011;30133;47.866;-4.222;2024-03-22T04:33:46;4.82;;;3.78;;
44426;SDS011;30133;47.866;-4.222;2024-03-22T04:36:32;6.57;;;4.40;;
44426;SDS011;30133;47.866;-4.222;2024-03-22T04:39:25;5.28;;;3.97;;
44426;SDS011;30133;47.866;-4.222;2024-03-22T04:42:11;4.78;;;3.53;;
44426;SDS011;30133;47.866;-4.222;2024-03-22T04:44:57;3.90;;;3.25;;
44426;SDS011;30133;47.866;-4.222;2024-03-22T04:47:43;3.83;;;3.33;;
44426;SDS011;30133;47.866;-4.222;2024-03-22T04:50:29;7.43;;;3.30;;
44426;SDS011;30133;47.866;-4.222;2024-03-22T04:53:17;4.68;;;3.15;;
44426;SDS011;30133;47.866;-4.222;2024-03-22T04:56:03;4.22;;;3.42;;
44426;SDS011;30133;47.866;-4.222;2024-03-22T04:58:50;4.72;;;3.22;;
44426;SDS011;30133;47.866;-4.222;2024-03-22T05:01:36;3.75;;;3.35;;
44426;SDS011;30133;47.866;-4.222;2024-03-22T05:04:22;5.05;;;3.47;;
44426;SDS011;30133;47.866;-4.222;2024-03-22T05:07:08;4.93;;;3.17;;
44426;SDS011;30133;47.866;-4.222;2024-03-22T05:09:54;5.85;;;3.38;;
44426;SDS011;30133;47.866;-4.222;2024-03-22T05:12:40;5.70;;;2.95;;
44426;SDS011;30133;47.866;-4.222;2024-03-22T05:15:26;3.28;;;2.88;;
44426;SDS011;30133;47.866;-4.222;2024-03-22T05:18:12;3.47;;;2.95;;
44426;SDS011;30133;47.866;-4.222;2024-03-22T05:20:58;3.97;;;2.83;;
44426;SDS011;30133;47.866;-4.222;2024-03-22T05:23:44;3.60;;;2.88;;
44426;SDS011;30133;47.866;-4.222;2024-03-22T05:26:30;3.92;;;3.05;;
44426;SDS011;30133;47.866;-4.222;2024-03-22T05:29:21;3.38;;;2.97;;
44426;SDS011;30133;47.866;-4.222;2024-03-22T05:32:07;4.88;;;2.67;;
44426;SDS011;30133;47.866;-4.222;2024-03-22T05:34:53;4.13;;;2.70;;
44426;SDS011;30133;47.866;-4.222;2024-03-22T05:37:39;3.22;;;2.78;;
44426;SDS011;30133;47.866;-4.222;2024-03-22T05:40:32;5.45;;;3.08;;
44426;SDS011;30133;47.866;-4.222;2024-03-22T05:43:21;3.13;;;2.47;;
44426;SDS011;30133;47.866;-4.222;2024-03-22T05:46:07;3.38;;;2.60;;
44426;SDS011;30133;47.866;-4.222;2024-03-22T05:48:53;3.78;;;2.80;;
44426;SDS011;30133;47.866;-4.222;2024-03-22T05:51:39;3.47;;;2.90;;
44426;SDS011;30133;47.866;-4.222;2024-03-22T05:54:25;6.65;;;2.90;;
44426;SDS011;30133;47.866;-4.222;2024-03-22T05:57:12;3.42;;;2.30;;
44426;SDS011;30133;47.866;-4.222;2024-03-22T05:59:58;3.78;;;2.58;;
44426;SDS011;30133;47.866;-4.222;2024-03-22T06:02:44;4.20;;;2.42;;
44426;SDS011;30133;47.866;-4.222;2024-03-22T06:05:30;3.58;;;2.50;;
44426;SDS011;30133;47.866;-4.222;2024-03-22T06:08:16;3.85;;;2.50;;
44426;SDS011;30133;47.866;-4.222;2024-03-22T06:11:04;3.78;;;2.33;;
44426;SDS011;30133;47.866;-4.222;2024-03-22T06:13:52;4.25;;;2.13;;
44426;SDS011;30133;47.866;-4.222;2024-03-22T06:16:38;3.85;;;2.38;;
44426;SDS011;30133;47.866;-4.222;2024-03-22T06:19:24;3.33;;;2.50;;
44426;SDS011;30133;47.866;-4.222;2024-03-22T06:22:11;3.40;;;2.50;;
44426;SDS011;30133;47.866;-4.222;2024-03-22T06:24:57;3.60;;;2.25;;
44426;SDS011;30133;47.866;-4.222;2024-03-22T06:27:44;4.03;;;2.28;;
44426;SDS011;30133;47.866;-4.222;2024-03-22T06:30:30;3.78;;;2.33;;
44426;SDS011;30133;47.866;-4.222;2024-03-22T06:33:16;2.40;;;2.20;;
44426;SDS011;30133;47.866;-4.222;2024-03-22T06:36:02;3.00;;;2.35;;
44426;SDS011;30133;47.866;-4.222;2024-03-22T06:38:51;2.63;;;2.30;;
44426;SDS011;30133;47.866;-4.222;2024-03-22T06:44:30;3.85;;;2.38;;
44426;SDS011;30133;47.866;-4.222;2024-03-22T06:47:17;2.75;;;2.00;;
44426;SDS011;30133;47.866;-4.222;2024-03-22T06:50:06;3.17;;;2.10;;
44426;SDS011;30133;47.866;-4.222;2024-03-22T06:52:52;2.10;;;1.83;;
44426;SDS011;30133;47.866;-4.222;2024-03-22T06:55:39;5.10;;;2.38;;
44426;SDS011;30133;47.866;-4.222;2024-03-22T06:58:25;4.10;;;2.30;;
44426;SDS011;30133;47.866;-4.222;2024-03-22T07:01:18;3.97;;;2.05;;
44426;SDS011;30133;47.866;-4.222;2024-03-22T07:04:06;3.33;;;2.15;;
44426;SDS011;30133;47.866;-4.222;2024-03-22T07:06:52;3.80;;;2.35;;
44426;SDS011;30133;47.866;-4.222;2024-03-22T07:09:38;3.17;;;2.10;;
44426;SDS011;30133;47.866;-4.222;2024-03-22T07:12:24;2.97;;;2.20;;
44426;SDS011;30133;47.866;-4.222;2024-03-22T07:15:10;2.92;;;2.63;;
44426;SDS011;30133;47.866;-4.222;2024-03-22T07:17:57;2.40;;;2.00;;
44426;SDS011;30133;47.866;-4.222;2024-03-22T07:20:43;2.95;;;2.05;;
44426;SDS011;30133;47.866;-4.222;2024-03-22T07:23:31;5.25;;;2.50;;
44426;SDS011;30133;47.866;-4.222;2024-03-22T07:26:17;3.15;;;1.98;;
44426;SDS011;30133;47.866;-4.222;2024-03-22T07:29:03;4.65;;;2.28;;
44426;SDS011;30133;47.866;-4.222;2024-03-22T07:31:49;4.88;;;2.33;;
44426;SDS011;30133;47.866;-4.222;2024-03-22T07:34:35;10.52;;;2.50;;
44426;SDS011;30133;47.866;-4.222;2024-03-22T07:37:22;10.18;;;2.58;;
44426;SDS011;30133;47.866;-4.222;2024-03-22T07:40:08;8.15;;;2.42;;
44426;SDS011;30133;47.866;-4.222;2024-03-22T07:43:01;9.45;;;2.38;;
44426;SDS011;30133;47.866;-4.222;2024-03-22T07:45:52;9.57;;;2.78;;
44426;SDS011;30133;47.866;-4.222;2024-03-22T07:51:30;10.00;;;2.63;;
44426;SDS011;30133;47.866;-4.222;2024-03-22T07:54:16;7.32;;;2.65;;
44426;SDS011;30133;47.866;-4.222;2024-03-22T07:57:02;6.97;;;2.92;;
44426;SDS011;30133;47.866;-4.222;2024-03-22T07:59:49;5.07;;;2.50;;
44426;SDS011;30133;47.866;-4.222;2024-03-22T08:02:35;8.57;;;3.45;;
44426;SDS011;30133;47.866;-4.222;2024-03-22T08:05:21;10.02;;;2.70;;
44426;SDS011;30133;47.866;-4.222;2024-03-22T08:08:07;6.90;;;2.53;;
44426;SDS011;30133;47.866;-4.222;2024-03-22T08:10:53;8.80;;;2.90;;
44426;SDS011;30133;47.866;-4.222;2024-03-22T08:13:39;3.38;;;2.40;;
44426;SDS011;30133;47.866;-4.222;2024-03-22T08:16:25;4.70;;;2.10;;
44426;SDS011;30133;47.866;-4.222;2024-03-22T08:19:12;6.68;;;2.38;;
44426;SDS011;30133;47.866;-4.222;2024-03-22T08:21:58;9.18;;;2.33;;
44426;SDS011;30133;47.866;-4.222;2024-03-22T08:24:44;7.82;;;2.47;;
44426;SDS011;30133;47.866;-4.222;2024-03-22T08:27:31;8.38;;;2.70;;
44426;SDS011;30133;47.866;-4.222;2024-03-22T08:30:17;3.00;;;2.60;;
44426;SDS011;30133;47.866;-4.222;2024-03-22T08:33:03;5.25;;;2.60;;
44426;SDS011;30133;47.866;-4.222;2024-03-22T08:35:49;4.13;;;2.13;;
44426;SDS011;30133;47.866;-4.222;2024-03-22T08:38:35;6.13;;;2.40;;
44426;SDS011;30133;47.866;-4.222;2024-03-22T08:41:21;7.30;;;1.85;;
44426;SDS011;30133;47.866;-4.222;2024-03-22T08:44:14;4.68;;;2.00;;
44426;SDS011;30133;47.866;-4.222;2024-03-22T08:47:00;5.70;;;2.28;;
44426;SDS011;30133;47.866;-4.222;2024-03-22T08:49:46;6.35;;;2.33;;
44426;SDS011;30133;47.866;-4.222;2024-03-22T08:52:32;6.00;;;2.38;;
44426;SDS011;30133;47.866;-4.222;2024-03-22T08:55:21;4.18;;;2.20;;
44426;SDS011;30133;47.866;-4.222;2024-03-22T08:58:07;4.65;;;2.20;;
44426;SDS011;30133;47.866;-4.222;2024-03-22T09:00:53;5.95;;;2.05;;
44426;SDS011;30133;47.866;-4.222;2024-03-22T09:03:39;3.80;;;1.98;;
44426;SDS011;30133;47.866;-4.222;2024-03-22T09:06:25;6.57;;;2.20;;
44426;SDS011;30133;47.866;-4.222;2024-03-22T09:09:11;5.60;;;1.98;;
44426;SDS011;30133;47.866;-4.222;2024-03-22T09:11:58;13.32;;;2.42;;
44426;SDS011;30133;47.866;-4.222;2024-03-22T09:14:44;7.25;;;2.03;;
44426;SDS011;30133;47.866;-4.222;2024-03-22T09:17:30;3.13;;;1.60;;
44426;SDS011;30133;47.866;-4.222;2024-03-22T09:20:16;12.27;;;2.83;;
44426;SDS011;30133;47.866;-4.222;2024-03-22T09:23:02;9.25;;;2.00;;
44426;SDS011;30133;47.866;-4.222;2024-03-22T09:25:49;14.93;;;2.72;;
44426;SDS011;30133;47.866;-4.222;2024-03-22T09:28:35;2.13;;;1.70;;
44426;SDS011;30133;47.866;-4.222;2024-03-22T09:31:21;5.75;;;1.98;;
44426;SDS011;30133;47.866;-4.222;2024-03-22T09:34:07;7.30;;;2.03;;
44426;SDS011;30133;47.866;-4.222;2024-03-22T09:36:53;5.90;;;1.77;;
44426;SDS011;30133;47.866;-4.222;2024-03-22T09:39:39;4.72;;;1.80;;
44426;SDS011;30133;47.866;-4.222;2024-03-22T09:42:26;6.38;;;2.10;;
44426;SDS011;30133;47.866;-4.222;2024-03-22T09:45:23;10.43;;;2.28;;
44426;SDS011;30133;47.866;-4.222;2024-03-22T09:48:09;9.38;;;2.20;;
44426;SDS011;30133;47.866;-4.222;2024-03-22T09:50:55;4.07;;;2.25;;
44426;SDS011;30133;47.866;-4.222;2024-03-22T09:53:45;8.00;;;2.20;;
44426;SDS011;30133;47.866;-4.222;2024-03-22T09:56:34;5.20;;;2.15;;
44426;SDS011;30133;47.866;-4.222;2024-03-22T09:59:23;6.90;;;2.30;;
44426;SDS011;30133;47.866;-4.222;2024-03-22T10:02:10;6.20;;;2.33;;
44426;SDS011;30133;47.866;-4.222;2024-03-22T10:05:00;4.45;;;2.40;;
44426;SDS011;30133;47.866;-4.222;2024-03-22T10:07:49;11.05;;;2.17;;
44426;SDS011;30133;47.866;-4.222;2024-03-22T10:10:36;7.68;;;2.03;;
44426;SDS011;30133;47.866;-4.222;2024-03-22T10:13:22;14.20;;;2.67;;
44426;SDS011;30133;47.866;-4.222;2024-03-22T10:16:08;4.82;;;2.10;;
44426;SDS011;30133;47.866;-4.222;2024-03-22T10:18:54;6.97;;;2.10;;
44426;SDS011;30133;47.866;-4.222;2024-03-22T10:21:40;9.70;;;2.28;;
44426;SDS011;30133;47.866;-4.222;2024-03-22T10:24:27;5.72;;;2.33;;
44426;SDS011;30133;47.866;-4.222;2024-03-22T10:27:14;3.15;;;2.00;;
44426;SDS011;30133;47.866;-4.222;2024-03-22T10:30:00;7.15;;;2.42;;
44426;SDS011;30133;47.866;-4.222;2024-03-22T10:32:46;5.00;;;2.40;;
44426;SDS011;30133;47.866;-4.222;2024-03-22T10:35:34;3.15;;;1.98;;
44426;SDS011;30133;47.866;-4.222;2024-03-22T10:38:21;3.35;;;2.00;;
44426;SDS011;30133;47.866;-4.222;2024-03-22T10:41:07;7.95;;;2.55;;
44426;SDS011;30133;47.866;-4.222;2024-03-22T10:43:54;5.30;;;2.55;;
44426;SDS011;30133;47.866;-4.222;2024-03-22T10:46:47;12.57;;;2.55;;
44426;SDS011;30133;47.866;-4.222;2024-03-22T10:49:34;6.97;;;2.33;;
44426;SDS011;30133;47.866;-4.222;2024-03-22T10:52:23;5.30;;;2.30;;
44426;SDS011;30133;47.866;-4.222;2024-03-22T10:55:10;7.78;;;2.33;;
44426;SDS011;30133;47.866;-4.222;2024-03-22T10:58:02;14.48;;;2.10;;
44426;SDS011;30133;47.866;-4.222;2024-03-22T11:00:53;9.27;;;2.17;;
44426;SDS011;30133;47.866;-4.222;2024-03-22T11:03:41;5.13;;;2.20;;
44426;SDS011;30133;47.866;-4.222;2024-03-22T11:06:27;5.43;;;2.28;;
44426;SDS011;30133;47.866;-4.222;2024-03-22T11:09:18;3.95;;;2.17;;
44426;SDS011;30133;47.866;-4.222;2024-03-22T11:12:08;4.72;;;2.25;;
44426;SDS011;30133;47.866;-4.222;2024-03-22T11:14:55;7.03;;;2.25;;
44426;SDS011;30133;47.866;-4.222;2024-03-22T11:17:41;9.13;;;2.53;;
44426;SDS011;30133;47.866;-4.222;2024-03-22T11:20:28;9.63;;;2.28;;
44426;SDS011;30133;47.866;-4.222;2024-03-22T11:23:16;8.73;;;3.35;;
44426;SDS011;30133;47.866;-4.222;2024-03-22T11:26:02;6.68;;;2.25;;
44426;SDS011;30133;47.866;-4.222;2024-03-22T11:28:49;10.23;;;2.20;;
44426;SDS011;30133;47.866;-4.222;2024-03-22T11:31:35;11.23;;;2.63;;
44426;SDS011;30133;47.866;-4.222;2024-03-22T11:34:22;6.47;;;2.05;;
44426;SDS011;30133;47.866;-4.222;2024-03-22T11:37:08;5.80;;;2.10;;
44426;SDS011;30133;47.866;-4.222;2024-03-22T11:39:55;5.97;;;2.28;;
44426;SDS011;30133;47.866;-4.222;2024-03-22T11:42:44;8.20;;;2.08;;
44426;SDS011;30133;47.866;-4.222;2024-03-22T11:45:34;9.52;;;2.38;;
44426;SDS011;30133;47.866;-4.222;2024-03-22T11:48:27;7.07;;;2.20;;
44426;SDS011;30133;47.866;-4.222;2024-03-22T11:51:13;5.47;;;2.08;;
44426;SDS011;30133;47.866;-4.222;2024-03-22T11:53:59;3.15;;;2.00;;
44426;SDS011;30133;47.866;-4.222;2024-03-22T11:56:48;7.82;;;2.30;;
44426;SDS011;30133;47.866;-4.222;2024-03-22T11:59:35;7.43;;;2.55;;
44426;SDS011;30133;47.866;-4.222;2024-03-22T12:02:21;6.40;;;2.05;;
44426;SDS011;30133;47.866;-4.222;2024-03-22T12:05:07;6.70;;;2.35;;
44426;SDS011;30133;47.866;-4.222;2024-03-22T12:07:54;5.25;;;2.40;;
44426;SDS011;30133;47.866;-4.222;2024-03-22T12:10:41;7.63;;;2.30;;
44426;SDS011;30133;47.866;-4.222;2024-03-22T12:13:27;6.60;;;2.28;;
44426;SDS011;30133;47.866;-4.222;2024-03-22T12:16:13;4.15;;;2.13;;
44426;SDS011;30133;47.866;-4.222;2024-03-22T12:18:59;3.97;;;2.10;;
44426;SDS011;30133;47.866;-4.222;2024-03-22T12:21:45;5.80;;;2.45;;
44426;SDS011;30133;47.866;-4.222;2024-03-22T12:24:31;5.50;;;2.50;;
44426;SDS011;30133;47.866;-4.222;2024-03-22T12:27:17;5.28;;;2.35;;
44426;SDS011;30133;47.866;-4.222;2024-03-22T12:30:04;7.28;;;2.38;;
44426;SDS011;30133;47.866;-4.222;2024-03-22T12:32:51;8.30;;;2.60;;
44426;SDS011;30133;47.866;-4.222;2024-03-22T12:35:39;3.70;;;2.42;;
44426;SDS011;30133;47.866;-4.222;2024-03-22T12:38:25;6.18;;;2.63;;
44426;SDS011;30133;47.866;-4.222;2024-03-22T12:41:12;7.15;;;2.90;;
44426;SDS011;30133;47.866;-4.222;2024-03-22T12:43:58;8.10;;;2.40;;
44426;SDS011;30133;47.866;-4.222;2024-03-22T12:46:45;5.88;;;2.75;;
44426;SDS011;30133;47.866;-4.222;2024-03-22T12:49:37;6.03;;;3.00;;
44426;SDS011;30133;47.866;-4.222;2024-03-22T12:52:23;7.10;;;2.60;;
44426;SDS011;30133;47.866;-4.222;2024-03-22T12:55:09;4.90;;;2.40;;
44426;SDS011;30133;47.866;-4.222;2024-03-22T12:57:56;4.90;;;3.22;;
44426;SDS011;30133;47.866;-4.222;2024-03-22T13:00:43;5.72;;;3.05;;
44426;SDS011;30133;47.866;-4.222;2024-03-22T13:03:29;5.65;;;3.20;;
44426;SDS011;30133;47.866;-4.222;2024-03-22T13:06:15;5.28;;;2.85;;
44426;SDS011;30133;47.866;-4.222;2024-03-22T13:09:01;4.88;;;2.70;;
44426;SDS011;30133;47.866;-4.222;2024-03-22T13:11:49;4.72;;;2.67;;
44426;SDS011;30133;47.866;-4.222;2024-03-22T13:14:35;6.63;;;3.17;;
44426;SDS011;30133;47.866;-4.222;2024-03-22T13:17:36;11.63;;;3.45;;
44426;SDS011;30133;47.866;-4.222;2024-03-22T13:20:35;5.95;;;3.25;;
44426;SDS011;30133;47.866;-4.222;2024-03-22T13:23:21;3.88;;;2.75;;
44426;SDS011;30133;47.866;-4.222;2024-03-22T13:26:08;7.03;;;3.05;;
44426;SDS011;30133;47.866;-4.222;2024-03-22T13:28:54;11.43;;;3.58;;
44426;SDS011;30133;47.866;-4.222;2024-03-22T13:31:40;7.97;;;2.90;;
44426;SDS011;30133;47.866;-4.222;2024-03-22T13:34:26;6.85;;;3.30;;
44426;SDS011;30133;47.866;-4.222;2024-03-22T13:37:12;6.50;;;3.70;;
44426;SDS011;30133;47.866;-4.222;2024-03-22T13:39:58;8.52;;;3.90;;
44426;SDS011;30133;47.866;-4.222;2024-03-22T13:42:45;7.47;;;3.40;;
44426;SDS011;30133;47.866;-4.222;2024-03-22T13:45:31;6.47;;;3.28;;
44426;SDS011;30133;47.866;-4.222;2024-03-22T13:48:17;10.20;;;4.25;;
44426;SDS011;30133;47.866;-4.222;2024-03-22T13:51:03;9.48;;;3.95;;
44426;SDS011;30133;47.866;-4.222;2024-03-22T13:53:49;6.65;;;3.53;;
44426;SDS011;30133;47.866;-4.222;2024-03-22T13:56:35;8.20;;;3.50;;
44426;SDS011;30133;47.866;-4.222;2024-03-22T13:59:23;5.97;;;3.25;;
44426;SDS011;30133;47.866;-4.222;2024-03-22T14:02:09;10.07;;;4.13;;
44426;SDS011;30133;47.866;-4.222;2024-03-22T14:04:55;8.57;;;4.20;;
44426;SDS011;30133;47.866;-4.222;2024-03-22T14:07:44;16.33;;;4.63;;
44426;SDS011;30133;47.866;-4.222;2024-03-22T14:10:30;12.63;;;4.18;;
44426;SDS011;30133;47.866;-4.222;2024-03-22T14:13:16;9.30;;;3.97;;
44426;SDS011;30133;47.866;-4.222;2024-03-22T14:16:03;12.10;;;4.05;;
44426;SDS011;30133;47.866;-4.222;2024-03-22T14:18:49;11.68;;;3.72;;
44426;SDS011;30133;47.866;-4.222;2024-03-22T14:21:42;13.65;;;4.32;;
44426;SDS011;30133;47.866;-4.222;2024-03-22T14:24:28;8.98;;;4.22;;
44426;SDS011;30133;47.866;-4.222;2024-03-22T14:27:14;14.48;;;3.80;;
44426;SDS011;30133;47.866;-4.222;2024-03-22T14:30:01;12.05;;;3.97;;
44426;SDS011;30133;47.866;-4.222;2024-03-22T14:32:52;11.63;;;4.18;;
44426;SDS011;30133;47.866;-4.222;2024-03-22T14:35:38;8.88;;;4.22;;
44426;SDS011;30133;47.866;-4.222;2024-03-22T14:38:24;8.02;;;3.72;;
44426;SDS011;30133;47.866;-4.222;2024-03-22T14:41:11;9.05;;;4.00;;
44426;SDS011;30133;47.866;-4.222;2024-03-22T14:43:57;12.48;;;3.75;;
44426;SDS011;30133;47.866;-4.222;2024-03-22T14:46:43;11.32;;;4.35;;
44426;SDS011;30133;47.866;-4.222;2024-03-22T14:49:29;9.85;;;3.97;;
44426;SDS011;30133;47.866;-4.222;2024-03-22T14:52:15;11.23;;;3.80;;
44426;SDS011;30133;47.866;-4.222;2024-03-22T14:55:01;12.45;;;3.95;;
44426;SDS011;30133;47.866;-4.222;2024-03-22T14:57:47;11.02;;;3.92;;
44426;SDS011;30133;47.866;-4.222;2024-03-22T15:00:40;7.30;;;3.67;;
44426;SDS011;30133;47.866;-4.222;2024-03-22T15:03:26;5.78;;;3.65;;
44426;SDS011;30133;47.866;-4.222;2024-03-22T15:06:12;14.55;;;3.88;;
44426;SDS011;30133;47.866;-4.222;2024-03-22T15:08:58;9.02;;;3.85;;
44426;SDS011;30133;47.866;-4.222;2024-03-22T15:11:50;14.73;;;4.20;;
44426;SDS011;30133;47.866;-4.222;2024-03-22T15:14:36;8.60;;;3.70;;
44426;SDS011;30133;47.866;-4.222;2024-03-22T15:17:22;18.10;;;4.20;;
44426;SDS011;30133;47.866;-4.222;2024-03-22T15:20:08;15.18;;;3.72;;
44426;SDS011;30133;47.866;-4.222;2024-03-22T15:23:01;9.57;;;3.72;;
44426;SDS011;30133;47.866;-4.222;2024-03-22T15:25:48;8.73;;;3.38;;
44426;SDS011;30133;47.866;-4.222;2024-03-22T15:28:36;11.93;;;3.70;;
44426;SDS011;30133;47.866;-4.222;2024-03-22T15:31:23;15.27;;;4.25;;
44426;SDS011;30133;47.866;-4.222;2024-03-22T15:34:09;14.38;;;3.35;;
44426;SDS011;30133;47.866;-4.222;2024-03-22T15:36:55;18.48;;;3.60;;
44426;SDS011;30133;47.866;-4.222;2024-03-22T15:39:41;9.70;;;3.78;;
44426;SDS011;30133;47.866;-4.222;2024-03-22T15:42:27;18.67;;;4.00;;
44426;SDS011;30133;47.866;-4.222;2024-03-22T15:45:13;12.13;;;3.58;;
44426;SDS011;30133;47.866;-4.222;2024-03-22T15:47:59;15.90;;;3.55;;
44426;SDS011;30133;47.866;-4.222;2024-03-22T15:50:46;11.65;;;3.00;;
44426;SDS011;30133;47.866;-4.222;2024-03-22T15:53:32;9.48;;;3.55;;
44426;SDS011;30133;47.866;-4.222;2024-03-22T15:56:18;11.40;;;3.20;;
44426;SDS011;30133;47.866;-4.222;2024-03-22T15:59:04;21.10;;;3.58;;
44426;SDS011;30133;47.866;-4.222;2024-03-22T16:01:50;31.73;;;4.20;;
44426;SDS011;30133;47.866;-4.222;2024-03-22T16:04:36;17.95;;;4.10;;
44426;SDS011;30133;47.866;-4.222;2024-03-22T16:07:24;21.05;;;4.00;;
44426;SDS011;30133;47.866;-4.222;2024-03-22T16:10:11;7.95;;;3.70;;
44426;SDS011;30133;47.866;-4.222;2024-03-22T16:12:58;35.70;;;5.38;;
44426;SDS011;30133;47.866;-4.222;2024-03-22T16:15:45;37.92;;;3.90;;
44426;SDS011;30133;47.866;-4.222;2024-03-22T16:18:31;17.95;;;3.40;;
44426;SDS011;30133;47.866;-4.222;2024-03-22T16:21:19;22.33;;;4.22;;
44426;SDS011;30133;47.866;-4.222;2024-03-22T16:24:11;49.88;;;5.47;;
44426;SDS011;30133;47.866;-4.222;2024-03-22T16:26:57;15.90;;;4.00;;
44426;SDS011;30133;47.866;-4.222;2024-03-22T16:29:43;27.88;;;4.07;;
44426;SDS011;30133;47.866;-4.222;2024-03-22T16:32:29;29.33;;;3.88;;
44426;SDS011;30133;47.866;-4.222;2024-03-22T16:35:15;36.05;;;4.50;;